sensor_id;sensor_type;location;lat;lon;timestamp;P1;durP1;ratioP1;P2;durP2;ratioP2
34573;SDS011;20809;49.594;8.734;2022-10-31T00:01:10;13.00;;;7.03;;
34573;SDS011;20809;49.594;8.734;2022-10-31T00:04:19;12.07;;;7.13;;
34573;SDS011;20809;49.594;8.734;2022-10-31T00:07:19;7.93;;;6.47;;
34573;SDS011;20809;49.594;8.734;2022-10-31T00:10:20;23.37;;;8.40;;
34573;SDS011;20809;49.594;8.734;2022-10-31T00:13:21;10.63;;;7.17;;
34573;SDS011;20809;49.594;8.734;2022-10-31T00:16:22;16.38;;;9.65;;
34573;SDS011;20809;49.594;8.734;2022-10-31T00:19:24;15.60;;;8.30;;
34573;SDS011;20809;49.594;8.734;2022-10-31T00:22:24;13.07;;;7.53;;
34573;SDS011;20809;49.594;8.734;2022-10-31T00:25:25;17.07;;;7.63;;
34573;SDS011;20809;49.594;8.734;2022-10-31T00:28:27;14.68;;;7.72;;
34573;SDS011;20809;49.594;8.734;2022-10-31T00:31:30;10.43;;;6.85;;
34573;SDS011;20809;49.594;8.734;2022-10-31T00:34:30;16.17;;;8.03;;
34573;SDS011;20809;49.594;8.734;2022-10-31T00:37:31;16.53;;;8.13;;
34573;SDS011;20809;49.594;8.734;2022-10-31T00:40:32;14.83;;;7.87;;
34573;SDS011;20809;49.594;8.734;2022-10-31T00:43:32;13.50;;;7.03;;
34573;SDS011;20809;49.594;8.734;2022-10-31T00:46:33;15.48;;;6.20;;
34573;SDS011;20809;49.594;8.734;2022-10-31T00:49:34;11.75;;;5.97;;
34573;SDS011;20809;49.594;8.734;2022-10-31T00:52:34;12.77;;;5.57;;
34573;SDS011;20809;49.594;8.734;2022-10-31T00:55:35;8.40;;;5.17;;
34573;SDS011;20809;49.594;8.734;2022-10-31T00:58:36;8.57;;;5.87;;
34573;SDS011;20809;49.594;8.734;2022-10-31T01:01:37;11.55;;;5.45;;
34573;SDS011;20809;49.594;8.734;2022-10-31T01:04:37;12.80;;;6.68;;
34573;SDS011;20809;49.594;8.734;2022-10-31T01:07:39;6.47;;;4.88;;
34573;SDS011;20809;49.594;8.734;2022-10-31T01:10:41;9.80;;;5.38;;
34573;SDS011;20809;49.594;8.734;2022-10-31T01:13:42;14.07;;;5.83;;
34573;SDS011;20809;49.594;8.734;2022-10-31T01:19:44;10.33;;;6.23;;
34573;SDS011;20809;49.594;8.734;2022-10-31T01:25:45;7.03;;;5.63;;
34573;SDS011;20809;49.594;8.734;2022-10-31T01:28:50;11.90;;;6.10;;
34573;SDS011;20809;49.594;8.734;2022-10-31T01:31:52;13.52;;;6.30;;
34573;SDS011;20809;49.594;8.734;2022-10-31T01:34:53;8.77;;;6.23;;
34573;SDS011;20809;49.594;8.734;2022-10-31T01:37:54;14.13;;;6.07;;
34573;SDS011;20809;49.594;8.734;2022-10-31T01:40:54;8.52;;;6.22;;
34573;SDS011;20809;49.594;8.734;2022-10-31T01:43:56;11.07;;;5.30;;
34573;SDS011;20809;49.594;8.734;2022-10-31T01:47:04;10.38;;;6.00;;
34573;SDS011;20809;49.594;8.734;2022-10-31T01:50:13;9.20;;;5.88;;
34573;SDS011;20809;49.594;8.734;2022-10-31T01:53:28;6.10;;;5.13;;
34573;SDS011;20809;49.594;8.734;2022-10-31T01:59:22;7.53;;;5.53;;
34573;SDS011;20809;49.594;8.734;2022-10-31T02:02:27;9.50;;;5.95;;
34573;SDS011;20809;49.594;8.734;2022-10-31T02:05:30;11.20;;;6.05;;
34573;SDS011;20809;49.594;8.734;2022-10-31T02:08:32;6.93;;;5.13;;
34573;SDS011;20809;49.594;8.734;2022-10-31T02:11:34;6.25;;;4.32;;
34573;SDS011;20809;49.594;8.734;2022-10-31T02:17:37;8.45;;;5.35;;
34573;SDS011;20809;49.594;8.734;2022-10-31T02:30:10;11.18;;;5.75;;
34573;SDS011;20809;49.594;8.734;2022-10-31T02:33:24;9.02;;;6.07;;
34573;SDS011;20809;49.594;8.734;2022-10-31T02:36:43;8.20;;;5.03;;
34573;SDS011;20809;49.594;8.734;2022-10-31T02:39:54;8.70;;;5.30;;
34573;SDS011;20809;49.594;8.734;2022-10-31T02:43:05;7.13;;;5.68;;
34573;SDS011;20809;49.594;8.734;2022-10-31T02:46:14;9.43;;;5.78;;
34573;SDS011;20809;49.594;8.734;2022-10-31T02:49:33;10.05;;;5.03;;
34573;SDS011;20809;49.594;8.734;2022-10-31T02:52:39;8.02;;;5.45;;
34573;SDS011;20809;49.594;8.734;2022-10-31T02:55:59;7.57;;;4.95;;
34573;SDS011;20809;49.594;8.734;2022-10-31T02:59:03;8.27;;;5.40;;
34573;SDS011;20809;49.594;8.734;2022-10-31T03:11:43;16.87;;;7.23;;
34573;SDS011;20809;49.594;8.734;2022-10-31T03:14:59;9.82;;;6.28;;
34573;SDS011;20809;49.594;8.734;2022-10-31T03:18:25;14.63;;;5.55;;
34573;SDS011;20809;49.594;8.734;2022-10-31T03:21:48;7.07;;;4.90;;
34573;SDS011;20809;49.594;8.734;2022-10-31T03:24:54;8.77;;;5.50;;
34573;SDS011;20809;49.594;8.734;2022-10-31T03:27:56;6.45;;;4.80;;
34573;SDS011;20809;49.594;8.734;2022-10-31T03:30:59;8.38;;;4.68;;
34573;SDS011;20809;49.594;8.734;2022-10-31T03:34:03;9.25;;;6.32;;
34573;SDS011;20809;49.594;8.734;2022-10-31T03:37:06;7.65;;;4.72;;
34573;SDS011;20809;49.594;8.734;2022-10-31T03:40:10;7.93;;;4.68;;
34573;SDS011;20809;49.594;8.734;2022-10-31T03:43:15;7.30;;;4.38;;
34573;SDS011;20809;49.594;8.734;2022-10-31T03:46:19;5.82;;;3.92;;
34573;SDS011;20809;49.594;8.734;2022-10-31T03:49:21;7.75;;;4.90;;
34573;SDS011;20809;49.594;8.734;2022-10-31T03:52:29;4.95;;;4.45;;
34573;SDS011;20809;49.594;8.734;2022-10-31T03:55:39;6.28;;;5.15;;
34573;SDS011;20809;49.594;8.734;2022-10-31T03:59:04;6.10;;;3.72;;
34573;SDS011;20809;49.594;8.734;2022-10-31T04:02:10;7.07;;;4.68;;
34573;SDS011;20809;49.594;8.734;2022-10-31T04:05:14;7.15;;;4.65;;
34573;SDS011;20809;49.594;8.734;2022-10-31T04:08:17;9.23;;;5.03;;
34573;SDS011;20809;49.594;8.734;2022-10-31T04:11:23;8.73;;;4.43;;
34573;SDS011;20809;49.594;8.734;2022-10-31T04:14:29;6.63;;;5.07;;
34573;SDS011;20809;49.594;8.734;2022-10-31T04:17:33;5.85;;;4.95;;
34573;SDS011;20809;49.594;8.734;2022-10-31T04:20:40;6.55;;;5.03;;
34573;SDS011;20809;49.594;8.734;2022-10-31T04:23:41;4.80;;;4.30;;
34573;SDS011;20809;49.594;8.734;2022-10-31T04:26:42;5.07;;;4.23;;
34573;SDS011;20809;49.594;8.734;2022-10-31T04:29:43;5.13;;;3.70;;
34573;SDS011;20809;49.594;8.734;2022-10-31T04:32:43;5.27;;;4.50;;
34573;SDS011;20809;49.594;8.734;2022-10-31T04:35:44;9.13;;;4.90;;
34573;SDS011;20809;49.594;8.734;2022-10-31T04:38:45;7.60;;;4.43;;
34573;SDS011;20809;49.594;8.734;2022-10-31T04:41:46;11.80;;;5.00;;
34573;SDS011;20809;49.594;8.734;2022-10-31T04:44:46;7.40;;;4.57;;
34573;SDS011;20809;49.594;8.734;2022-10-31T04:47:47;8.02;;;4.70;;
34573;SDS011;20809;49.594;8.734;2022-10-31T04:50:48;7.50;;;4.43;;
34573;SDS011;20809;49.594;8.734;2022-10-31T04:53:48;10.60;;;5.68;;
34573;SDS011;20809;49.594;8.734;2022-10-31T04:56:49;11.02;;;5.43;;
34573;SDS011;20809;49.594;8.734;2022-10-31T04:59:49;10.87;;;4.27;;
34573;SDS011;20809;49.594;8.734;2022-10-31T05:02:51;7.30;;;5.10;;
34573;SDS011;20809;49.594;8.734;2022-10-31T05:05:53;7.85;;;4.20;;
34573;SDS011;20809;49.594;8.734;2022-10-31T05:08:54;7.03;;;4.40;;
34573;SDS011;20809;49.594;8.734;2022-10-31T05:11:55;8.60;;;5.47;;
34573;SDS011;20809;49.594;8.734;2022-10-31T05:14:55;8.20;;;4.85;;
34573;SDS011;20809;49.594;8.734;2022-10-31T05:17:56;8.03;;;4.77;;
34573;SDS011;20809;49.594;8.734;2022-10-31T05:20:57;8.57;;;6.13;;
34573;SDS011;20809;49.594;8.734;2022-10-31T05:23:57;5.73;;;5.03;;
34573;SDS011;20809;49.594;8.734;2022-10-31T05:26:58;8.07;;;4.57;;
34573;SDS011;20809;49.594;8.734;2022-10-31T05:29:59;10.23;;;5.15;;
34573;SDS011;20809;49.594;8.734;2022-10-31T05:32:59;15.23;;;6.53;;
34573;SDS011;20809;49.594;8.734;2022-10-31T05:36:00;7.05;;;5.43;;
34573;SDS011;20809;49.594;8.734;2022-10-31T05:39:01;13.20;;;5.30;;
34573;SDS011;20809;49.594;8.734;2022-10-31T05:42:01;10.65;;;4.97;;
34573;SDS011;20809;49.594;8.734;2022-10-31T05:45:02;10.05;;;4.93;;
34573;SDS011;20809;49.594;8.734;2022-10-31T05:48:03;9.63;;;5.50;;
34573;SDS011;20809;49.594;8.734;2022-10-31T05:51:04;9.23;;;5.15;;
34573;SDS011;20809;49.594;8.734;2022-10-31T05:54:05;11.27;;;5.80;;
34573;SDS011;20809;49.594;8.734;2022-10-31T05:57:06;12.77;;;6.40;;
34573;SDS011;20809;49.594;8.734;2022-10-31T06:00:06;8.10;;;5.88;;
34573;SDS011;20809;49.594;8.734;2022-10-31T06:06:09;10.75;;;6.90;;
34573;SDS011;20809;49.594;8.734;2022-10-31T06:09:09;8.98;;;4.82;;
34573;SDS011;20809;49.594;8.734;2022-10-31T06:12:10;9.43;;;5.03;;
34573;SDS011;20809;49.594;8.734;2022-10-31T06:15:11;11.90;;;6.22;;
34573;SDS011;20809;49.594;8.734;2022-10-31T06:18:11;11.60;;;5.25;;
34573;SDS011;20809;49.594;8.734;2022-10-31T06:21:12;9.63;;;5.90;;
34573;SDS011;20809;49.594;8.734;2022-10-31T06:24:13;12.73;;;6.88;;
34573;SDS011;20809;49.594;8.734;2022-10-31T06:27:15;13.13;;;6.50;;
34573;SDS011;20809;49.594;8.734;2022-10-31T06:30:15;12.77;;;5.97;;
34573;SDS011;20809;49.594;8.734;2022-10-31T06:33:16;13.98;;;6.38;;
34573;SDS011;20809;49.594;8.734;2022-10-31T06:36:17;8.03;;;5.47;;
34573;SDS011;20809;49.594;8.734;2022-10-31T06:39:17;10.57;;;4.80;;
34573;SDS011;20809;49.594;8.734;2022-10-31T06:42:18;8.47;;;5.07;;
34573;SDS011;20809;49.594;8.734;2022-10-31T06:45:18;10.88;;;5.07;;
34573;SDS011;20809;49.594;8.734;2022-10-31T06:48:19;6.03;;;4.38;;
34573;SDS011;20809;49.594;8.734;2022-10-31T06:51:20;8.47;;;4.97;;
34573;SDS011;20809;49.594;8.734;2022-10-31T06:54:20;15.93;;;5.97;;
34573;SDS011;20809;49.594;8.734;2022-10-31T06:57:22;9.25;;;4.65;;
34573;SDS011;20809;49.594;8.734;2022-10-31T07:00:23;6.20;;;4.32;;
34573;SDS011;20809;49.594;8.734;2022-10-31T07:03:24;9.77;;;4.07;;
34573;SDS011;20809;49.594;8.734;2022-10-31T07:06:25;12.48;;;5.82;;
34573;SDS011;20809;49.594;8.734;2022-10-31T07:09:26;12.27;;;5.30;;
34573;SDS011;20809;49.594;8.734;2022-10-31T07:12:26;8.70;;;5.55;;
34573;SDS011;20809;49.594;8.734;2022-10-31T07:15:28;9.50;;;5.30;;
34573;SDS011;20809;49.594;8.734;2022-10-31T07:18:30;8.25;;;5.20;;
34573;SDS011;20809;49.594;8.734;2022-10-31T07:21:30;13.70;;;5.07;;
34573;SDS011;20809;49.594;8.734;2022-10-31T07:24:31;11.52;;;5.32;;
34573;SDS011;20809;49.594;8.734;2022-10-31T07:27:39;8.68;;;5.15;;
34573;SDS011;20809;49.594;8.734;2022-10-31T07:30:41;7.57;;;4.65;;
34573;SDS011;20809;49.594;8.734;2022-10-31T07:33:42;9.30;;;5.77;;
34573;SDS011;20809;49.594;8.734;2022-10-31T07:36:42;8.30;;;5.07;;
34573;SDS011;20809;49.594;8.734;2022-10-31T07:39:43;6.47;;;4.43;;
34573;SDS011;20809;49.594;8.734;2022-10-31T07:42:45;7.82;;;3.72;;
34573;SDS011;20809;49.594;8.734;2022-10-31T07:45:51;3.78;;;3.35;;
34573;SDS011;20809;49.594;8.734;2022-10-31T07:48:53;3.65;;;2.92;;
34573;SDS011;20809;49.594;8.734;2022-10-31T07:51:53;16.97;;;6.10;;
34573;SDS011;20809;49.594;8.734;2022-10-31T07:54:55;4.72;;;3.08;;
34573;SDS011;20809;49.594;8.734;2022-10-31T07:58:00;9.27;;;3.78;;
34573;SDS011;20809;49.594;8.734;2022-10-31T08:01:02;7.95;;;4.72;;
34573;SDS011;20809;49.594;8.734;2022-10-31T08:04:03;7.97;;;4.07;;
34573;SDS011;20809;49.594;8.734;2022-10-31T08:07:04;5.50;;;4.65;;
34573;SDS011;20809;49.594;8.734;2022-10-31T08:10:04;6.93;;;4.63;;
34573;SDS011;20809;49.594;8.734;2022-10-31T08:13:12;6.25;;;3.42;;
34573;SDS011;20809;49.594;8.734;2022-10-31T08:16:14;6.90;;;4.18;;
34573;SDS011;20809;49.594;8.734;2022-10-31T08:19:14;4.23;;;2.23;;
34573;SDS011;20809;49.594;8.734;2022-10-31T08:22:15;6.53;;;4.22;;
34573;SDS011;20809;49.594;8.734;2022-10-31T08:25:16;5.00;;;2.80;;
34573;SDS011;20809;49.594;8.734;2022-10-31T08:28:16;4.83;;;3.50;;
34573;SDS011;20809;49.594;8.734;2022-10-31T08:31:17;11.68;;;5.32;;
34573;SDS011;20809;49.594;8.734;2022-10-31T08:34:18;5.93;;;4.33;;
34573;SDS011;20809;49.594;8.734;2022-10-31T08:37:18;9.30;;;8.57;;
34573;SDS011;20809;49.594;8.734;2022-10-31T08:40:19;9.60;;;4.60;;
34573;SDS011;20809;49.594;8.734;2022-10-31T08:43:20;12.00;;;5.53;;
34573;SDS011;20809;49.594;8.734;2022-10-31T08:46:21;5.57;;;3.33;;
34573;SDS011;20809;49.594;8.734;2022-10-31T08:49:21;5.43;;;3.03;;
34573;SDS011;20809;49.594;8.734;2022-10-31T08:52:23;7.78;;;5.45;;
34573;SDS011;20809;49.594;8.734;2022-10-31T08:55:25;9.55;;;5.53;;
34573;SDS011;20809;49.594;8.734;2022-10-31T08:58:26;5.28;;;2.85;;
34573;SDS011;20809;49.594;8.734;2022-10-31T09:01:26;5.20;;;3.97;;
34573;SDS011;20809;49.594;8.734;2022-10-31T09:04:27;6.13;;;3.08;;
34573;SDS011;20809;49.594;8.734;2022-10-31T09:07:28;12.80;;;3.85;;
34573;SDS011;20809;49.594;8.734;2022-10-31T09:10:28;5.03;;;3.55;;
34573;SDS011;20809;49.594;8.734;2022-10-31T09:13:30;5.60;;;4.07;;
34573;SDS011;20809;49.594;8.734;2022-10-31T09:16:31;4.80;;;3.65;;
34573;SDS011;20809;49.594;8.734;2022-10-31T09:19:31;8.48;;;6.68;;
34573;SDS011;20809;49.594;8.734;2022-10-31T09:22:32;29.10;;;26.05;;
34573;SDS011;20809;49.594;8.734;2022-10-31T09:25:33;11.15;;;5.07;;
34573;SDS011;20809;49.594;8.734;2022-10-31T09:28:35;10.20;;;7.15;;
34573;SDS011;20809;49.594;8.734;2022-10-31T09:31:36;8.77;;;2.50;;
34573;SDS011;20809;49.594;8.734;2022-10-31T09:34:37;6.00;;;1.67;;
34573;SDS011;20809;49.594;8.734;2022-10-31T09:37:37;6.53;;;3.90;;
34573;SDS011;20809;49.594;8.734;2022-10-31T09:40:41;7.32;;;3.13;;
34573;SDS011;20809;49.594;8.734;2022-10-31T09:50:48;7.88;;;3.42;;
34573;SDS011;20809;49.594;8.734;2022-10-31T09:54:05;8.02;;;7.20;;
34573;SDS011;20809;49.594;8.734;2022-10-31T09:57:22;9.25;;;8.15;;
34573;SDS011;20809;49.594;8.734;2022-10-31T10:00:27;5.38;;;3.33;;
34573;SDS011;20809;49.594;8.734;2022-10-31T10:03:30;13.75;;;10.85;;
34573;SDS011;20809;49.594;8.734;2022-10-31T10:06:42;6.45;;;4.03;;
34573;SDS011;20809;49.594;8.734;2022-10-31T10:09:46;12.60;;;10.00;;
34573;SDS011;20809;49.594;8.734;2022-10-31T10:26:23;5.90;;;4.07;;
34573;SDS011;20809;49.594;8.734;2022-10-31T10:29:34;6.50;;;4.32;;
34573;SDS011;20809;49.594;8.734;2022-10-31T10:32:54;15.88;;;14.40;;
34573;SDS011;20809;49.594;8.734;2022-10-31T10:36:02;18.92;;;16.95;;
34573;SDS011;20809;49.594;8.734;2022-10-31T10:39:18;10.88;;;8.45;;
34573;SDS011;20809;49.594;8.734;2022-10-31T10:42:23;8.45;;;5.00;;
34573;SDS011;20809;49.594;8.734;2022-10-31T10:45:46;8.52;;;5.15;;
34573;SDS011;20809;49.594;8.734;2022-10-31T10:52:49;6.25;;;4.18;;
34573;SDS011;20809;49.594;8.734;2022-10-31T10:56:23;9.88;;;3.67;;
34573;SDS011;20809;49.594;8.734;2022-10-31T10:59:35;10.10;;;4.70;;
34573;SDS011;20809;49.594;8.734;2022-10-31T11:02:36;9.15;;;4.78;;
34573;SDS011;20809;49.594;8.734;2022-10-31T11:08:52;10.85;;;8.60;;
34573;SDS011;20809;49.594;8.734;2022-10-31T11:11:53;12.52;;;4.75;;
34573;SDS011;20809;49.594;8.734;2022-10-31T11:14:57;9.70;;;3.60;;
34573;SDS011;20809;49.594;8.734;2022-10-31T11:18:00;7.95;;;4.80;;
34573;SDS011;20809;49.594;8.734;2022-10-31T11:21:02;5.78;;;2.10;;
34573;SDS011;20809;49.594;8.734;2022-10-31T11:27:20;5.93;;;3.65;;
34573;SDS011;20809;49.594;8.734;2022-10-31T11:30:22;7.07;;;3.20;;
34573;SDS011;20809;49.594;8.734;2022-10-31T11:33:25;8.00;;;5.18;;
34573;SDS011;20809;49.594;8.734;2022-10-31T11:36:38;11.98;;;3.53;;
34573;SDS011;20809;49.594;8.734;2022-10-31T11:39:43;7.38;;;3.78;;
34573;SDS011;20809;49.594;8.734;2022-10-31T11:42:55;5.85;;;3.60;;
34573;SDS011;20809;49.594;8.734;2022-10-31T11:45:59;17.50;;;7.82;;
34573;SDS011;20809;49.594;8.734;2022-10-31T11:48:59;7.90;;;3.88;;
34573;SDS011;20809;49.594;8.734;2022-10-31T11:52:23;9.60;;;3.80;;
34573;SDS011;20809;49.594;8.734;2022-10-31T11:58:31;10.75;;;4.65;;
34573;SDS011;20809;49.594;8.734;2022-10-31T12:01:32;9.02;;;7.63;;
34573;SDS011;20809;49.594;8.734;2022-10-31T12:08:37;20.38;;;12.60;;
34573;SDS011;20809;49.594;8.734;2022-10-31T12:39:23;14.75;;;7.57;;
34573;SDS011;20809;49.594;8.734;2022-10-31T12:52:28;10.52;;;6.35;;
34573;SDS011;20809;49.594;8.734;2022-10-31T12:59:00;10.07;;;4.75;;
34573;SDS011;20809;49.594;8.734;2022-10-31T13:02:17;7.43;;;4.72;;
34573;SDS011;20809;49.594;8.734;2022-10-31T13:05:36;22.23;;;4.07;;
34573;SDS011;20809;49.594;8.734;2022-10-31T13:08:44;12.02;;;7.20;;
34573;SDS011;20809;49.594;8.734;2022-10-31T13:11:53;14.88;;;7.55;;
34573;SDS011;20809;49.594;8.734;2022-10-31T13:14:59;11.07;;;6.15;;
34573;SDS011;20809;49.594;8.734;2022-10-31T13:18:13;13.27;;;6.78;;
34573;SDS011;20809;49.594;8.734;2022-10-31T13:21:27;12.02;;;6.63;;
34573;SDS011;20809;49.594;8.734;2022-10-31T13:24:31;14.15;;;8.45;;
34573;SDS011;20809;49.594;8.734;2022-10-31T13:28:09;12.75;;;8.82;;
34573;SDS011;20809;49.594;8.734;2022-10-31T13:31:23;15.57;;;9.05;;
34573;SDS011;20809;49.594;8.734;2022-10-31T13:34:28;7.10;;;5.60;;
34573;SDS011;20809;49.594;8.734;2022-10-31T13:37:37;13.55;;;10.07;;
34573;SDS011;20809;49.594;8.734;2022-10-31T13:40:50;18.77;;;15.07;;
34573;SDS011;20809;49.594;8.734;2022-10-31T13:47:20;13.52;;;10.65;;
34573;SDS011;20809;49.594;8.734;2022-10-31T13:50:32;17.55;;;13.85;;
34573;SDS011;20809;49.594;8.734;2022-10-31T13:56:40;11.98;;;10.23;;
34573;SDS011;20809;49.594;8.734;2022-10-31T13:59:45;13.25;;;12.07;;
34573;SDS011;20809;49.594;8.734;2022-10-31T14:02:55;10.45;;;5.72;;
34573;SDS011;20809;49.594;8.734;2022-10-31T14:05:57;7.95;;;5.72;;
34573;SDS011;20809;49.594;8.734;2022-10-31T14:08:58;21.67;;;19.50;;
34573;SDS011;20809;49.594;8.734;2022-10-31T14:12:00;11.45;;;6.20;;
34573;SDS011;20809;49.594;8.734;2022-10-31T14:18:23;83.93;;;14.25;;
34573;SDS011;20809;49.594;8.734;2022-10-31T14:21:29;10.82;;;5.75;;
34573;SDS011;20809;49.594;8.734;2022-10-31T14:24:36;53.97;;;13.75;;
34573;SDS011;20809;49.594;8.734;2022-10-31T14:27:44;17.80;;;13.93;;
34573;SDS011;20809;49.594;8.734;2022-10-31T14:30:53;34.83;;;31.27;;
34573;SDS011;20809;49.594;8.734;2022-10-31T14:33:55;9.63;;;6.53;;
34573;SDS011;20809;49.594;8.734;2022-10-31T14:44:01;10.73;;;5.88;;
34573;SDS011;20809;49.594;8.734;2022-10-31T14:47:16;21.95;;;19.85;;
34573;SDS011;20809;49.594;8.734;2022-10-31T14:53:46;9.05;;;6.72;;
34573;SDS011;20809;49.594;8.734;2022-10-31T14:56:51;17.35;;;15.00;;
34573;SDS011;20809;49.594;8.734;2022-10-31T15:00:12;17.42;;;10.32;;
34573;SDS011;20809;49.594;8.734;2022-10-31T15:03:24;39.47;;;35.83;;
34573;SDS011;20809;49.594;8.734;2022-10-31T15:06:30;21.88;;;13.70;;
34573;SDS011;20809;49.594;8.734;2022-10-31T15:09:45;15.20;;;11.27;;
34573;SDS011;20809;49.594;8.734;2022-10-31T15:13:10;15.07;;;10.43;;
34573;SDS011;20809;49.594;8.734;2022-10-31T15:16:20;14.65;;;10.50;;
34573;SDS011;20809;49.594;8.734;2022-10-31T15:19:24;23.83;;;11.80;;
34573;SDS011;20809;49.594;8.734;2022-10-31T15:22:27;18.23;;;10.52;;
34573;SDS011;20809;49.594;8.734;2022-10-31T15:25:32;27.25;;;24.33;;
34573;SDS011;20809;49.594;8.734;2022-10-31T15:28:34;21.92;;;16.38;;
34573;SDS011;20809;49.594;8.734;2022-10-31T15:31:35;33.33;;;26.13;;
34573;SDS011;20809;49.594;8.734;2022-10-31T15:34:39;19.60;;;11.57;;
34573;SDS011;20809;49.594;8.734;2022-10-31T15:37:41;20.67;;;10.70;;
34573;SDS011;20809;49.594;8.734;2022-10-31T15:40:50;25.23;;;20.50;;
34573;SDS011;20809;49.594;8.734;2022-10-31T15:43:52;18.08;;;11.98;;
34573;SDS011;20809;49.594;8.734;2022-10-31T15:46:57;14.00;;;9.85;;
34573;SDS011;20809;49.594;8.734;2022-10-31T15:50:05;18.73;;;11.10;;
34573;SDS011;20809;49.594;8.734;2022-10-31T15:53:22;27.30;;;18.13;;
34573;SDS011;20809;49.594;8.734;2022-10-31T15:56:30;25.35;;;12.00;;
34573;SDS011;20809;49.594;8.734;2022-10-31T15:59:32;21.95;;;9.43;;
34573;SDS011;20809;49.594;8.734;2022-10-31T16:02:32;19.40;;;11.15;;
34573;SDS011;20809;49.594;8.734;2022-10-31T16:08:44;31.20;;;25.52;;
34573;SDS011;20809;49.594;8.734;2022-10-31T16:11:48;16.15;;;13.40;;
34573;SDS011;20809;49.594;8.734;2022-10-31T16:14:52;20.42;;;18.45;;
34573;SDS011;20809;49.594;8.734;2022-10-31T16:17:54;23.00;;;14.00;;
34573;SDS011;20809;49.594;8.734;2022-10-31T16:20:55;23.27;;;14.65;;
34573;SDS011;20809;49.594;8.734;2022-10-31T16:24:11;21.20;;;14.68;;
34573;SDS011;20809;49.594;8.734;2022-10-31T16:27:23;17.45;;;14.60;;
34573;SDS011;20809;49.594;8.734;2022-10-31T16:30:36;28.77;;;15.98;;
34573;SDS011;20809;49.594;8.734;2022-10-31T16:33:38;28.77;;;15.30;;
34573;SDS011;20809;49.594;8.734;2022-10-31T16:36:40;23.83;;;16.25;;
34573;SDS011;20809;49.594;8.734;2022-10-31T16:39:41;24.77;;;16.55;;
34573;SDS011;20809;49.594;8.734;2022-10-31T16:42:42;22.50;;;15.70;;
34573;SDS011;20809;49.594;8.734;2022-10-31T16:45:45;24.50;;;15.63;;
34573;SDS011;20809;49.594;8.734;2022-10-31T16:48:50;22.58;;;15.60;;
34573;SDS011;20809;49.594;8.734;2022-10-31T16:54:52;16.80;;;11.97;;
34573;SDS011;20809;49.594;8.734;2022-10-31T16:57:55;24.67;;;13.38;;
34573;SDS011;20809;49.594;8.734;2022-10-31T17:00:57;15.52;;;10.80;;
34573;SDS011;20809;49.594;8.734;2022-10-31T17:06:59;26.57;;;14.10;;
34573;SDS011;20809;49.594;8.734;2022-10-31T17:09:59;24.23;;;16.30;;
34573;SDS011;20809;49.594;8.734;2022-10-31T17:13:00;18.30;;;12.50;;
34573;SDS011;20809;49.594;8.734;2022-10-31T17:16:03;17.55;;;13.05;;
34573;SDS011;20809;49.594;8.734;2022-10-31T17:19:04;18.50;;;13.02;;
34573;SDS011;20809;49.594;8.734;2022-10-31T17:22:04;22.52;;;14.30;;
34573;SDS011;20809;49.594;8.734;2022-10-31T17:25:07;31.00;;;13.33;;
34573;SDS011;20809;49.594;8.734;2022-10-31T17:28:13;19.17;;;11.70;;
34573;SDS011;20809;49.594;8.734;2022-10-31T17:31:21;18.80;;;12.93;;
34573;SDS011;20809;49.594;8.734;2022-10-31T17:37:26;24.07;;;12.20;;
34573;SDS011;20809;49.594;8.734;2022-10-31T17:40:27;21.33;;;11.70;;
34573;SDS011;20809;49.594;8.734;2022-10-31T17:43:27;16.77;;;11.63;;
34573;SDS011;20809;49.594;8.734;2022-10-31T17:46:28;12.82;;;9.98;;
34573;SDS011;20809;49.594;8.734;2022-10-31T17:49:29;20.25;;;12.30;;
34573;SDS011;20809;49.594;8.734;2022-10-31T17:52:29;22.38;;;13.43;;
34573;SDS011;20809;49.594;8.734;2022-10-31T17:55:30;17.77;;;11.45;;
34573;SDS011;20809;49.594;8.734;2022-10-31T17:58:32;17.88;;;10.73;;
34573;SDS011;20809;49.594;8.734;2022-10-31T18:01:34;21.63;;;12.27;;
34573;SDS011;20809;49.594;8.734;2022-10-31T18:04:35;19.38;;;11.57;;
34573;SDS011;20809;49.594;8.734;2022-10-31T18:07:35;20.88;;;12.15;;
34573;SDS011;20809;49.594;8.734;2022-10-31T18:10:37;19.65;;;10.77;;
34573;SDS011;20809;49.594;8.734;2022-10-31T18:13:38;16.67;;;11.02;;
34573;SDS011;20809;49.594;8.734;2022-10-31T18:16:39;14.57;;;10.45;;
34573;SDS011;20809;49.594;8.734;2022-10-31T18:19:39;21.50;;;15.93;;
34573;SDS011;20809;49.594;8.734;2022-10-31T18:22:40;15.75;;;8.23;;
34573;SDS011;20809;49.594;8.734;2022-10-31T18:25:41;16.15;;;11.18;;
34573;SDS011;20809;49.594;8.734;2022-10-31T18:31:42;19.30;;;12.90;;
34573;SDS011;20809;49.594;8.734;2022-10-31T18:34:47;20.02;;;12.80;;
34573;SDS011;20809;49.594;8.734;2022-10-31T18:37:47;22.00;;;14.27;;
34573;SDS011;20809;49.594;8.734;2022-10-31T18:40:49;19.25;;;13.65;;
34573;SDS011;20809;49.594;8.734;2022-10-31T18:43:50;21.33;;;13.75;;
34573;SDS011;20809;49.594;8.734;2022-10-31T18:46:55;29.38;;;15.68;;
34573;SDS011;20809;49.594;8.734;2022-10-31T18:49:55;24.40;;;16.90;;
34573;SDS011;20809;49.594;8.734;2022-10-31T18:52:56;33.10;;;16.25;;
34573;SDS011;20809;49.594;8.734;2022-10-31T18:55:57;29.83;;;16.67;;
34573;SDS011;20809;49.594;8.734;2022-10-31T18:58:58;29.88;;;15.15;;
34573;SDS011;20809;49.594;8.734;2022-10-31T19:02:01;22.63;;;14.73;;
34573;SDS011;20809;49.594;8.734;2022-10-31T19:05:02;26.58;;;14.05;;
34573;SDS011;20809;49.594;8.734;2022-10-31T19:08:03;23.55;;;15.02;;
34573;SDS011;20809;49.594;8.734;2022-10-31T19:11:08;21.13;;;15.15;;
34573;SDS011;20809;49.594;8.734;2022-10-31T19:14:11;26.95;;;17.13;;
34573;SDS011;20809;49.594;8.734;2022-10-31T19:17:12;22.45;;;16.17;;
34573;SDS011;20809;49.594;8.734;2022-10-31T19:20:13;25.07;;;17.00;;
34573;SDS011;20809;49.594;8.734;2022-10-31T19:23:13;31.73;;;17.38;;
34573;SDS011;20809;49.594;8.734;2022-10-31T19:26:16;29.33;;;20.60;;
34573;SDS011;20809;49.594;8.734;2022-10-31T19:29:17;30.20;;;19.47;;
34573;SDS011;20809;49.594;8.734;2022-10-31T19:32:17;31.60;;;20.00;;
34573;SDS011;20809;49.594;8.734;2022-10-31T19:35:18;35.08;;;18.98;;
34573;SDS011;20809;49.594;8.734;2022-10-31T19:38:18;28.17;;;17.98;;
34573;SDS011;20809;49.594;8.734;2022-10-31T19:41:26;30.23;;;17.73;;
34573;SDS011;20809;49.594;8.734;2022-10-31T19:44:28;22.48;;;16.60;;
34573;SDS011;20809;49.594;8.734;2022-10-31T19:47:31;29.05;;;18.95;;
34573;SDS011;20809;49.594;8.734;2022-10-31T19:50:32;28.10;;;19.08;;
34573;SDS011;20809;49.594;8.734;2022-10-31T19:53:33;35.22;;;19.38;;
34573;SDS011;20809;49.594;8.734;2022-10-31T19:56:34;31.42;;;19.77;;
34573;SDS011;20809;49.594;8.734;2022-10-31T19:59:34;34.97;;;19.07;;
34573;SDS011;20809;49.594;8.734;2022-10-31T20:02:35;30.55;;;18.55;;
34573;SDS011;20809;49.594;8.734;2022-10-31T20:05:42;32.42;;;19.55;;
34573;SDS011;20809;49.594;8.734;2022-10-31T20:08:44;28.45;;;17.25;;
34573;SDS011;20809;49.594;8.734;2022-10-31T20:11:45;31.42;;;19.75;;
34573;SDS011;20809;49.594;8.734;2022-10-31T20:14:47;34.50;;;19.08;;
34573;SDS011;20809;49.594;8.734;2022-10-31T20:17:48;25.73;;;16.25;;
34573;SDS011;20809;49.594;8.734;2022-10-31T20:20:49;30.37;;;19.27;;
34573;SDS011;20809;49.594;8.734;2022-10-31T20:23:55;29.48;;;18.08;;
34573;SDS011;20809;49.594;8.734;2022-10-31T20:26:56;26.35;;;17.38;;
34573;SDS011;20809;49.594;8.734;2022-10-31T20:29:57;26.17;;;18.17;;
34573;SDS011;20809;49.594;8.734;2022-10-31T20:32:58;40.13;;;19.83;;
34573;SDS011;20809;49.594;8.734;2022-10-31T20:35:58;29.13;;;18.73;;
34573;SDS011;20809;49.594;8.734;2022-10-31T20:39:03;41.97;;;21.48;;
34573;SDS011;20809;49.594;8.734;2022-10-31T20:42:04;35.00;;;20.50;;